Time;durP1;ratioP1;P1;durP2;ratioP2;P2;SDS_P1;SDS_P2;PMS_P1;PMS_P2;Temp;Humidity;BMP_temperature;BMP_pressure;BME280_temperature;BME280_humidity;BME280_pressure;Samples;Min_cycle;Max_cycle;Signal;HPM_P1;HPM_P2
2023/01/29 00:02:20;;;;;;;;;;;;;;;;;;6107548;23;20051;-95
2023/01/29 00:04:46;;;;;;;;;;;;;;;;;;6107260;23;19984;-96
2023/01/29 00:07:11;;;;;;;;;;;;;;;;;;6107465;23;19978;-96
2023/01/29 00:09:38;;;;;;;;;;;;;;;;;;6106964;23;19920;-96
2023/01/29 00:12:06;;;;;;;;;;;;;;;;;;6107502;23;19920;-96
2023/01/29 00:14:32;;;;;;;;;;;;;;;;;;6107590;23;19917;-96
2023/01/29 00:16:58;;;;;;;;;;;;;;;;;;6106847;23;19939;-95
2023/01/29 00:19:24;;;;;;;;;;;;;;;;;;6106434;23;19927;-96
2023/01/29 00:21:49;;;;;;;;;;;;;;;;;;6107126;23;19940;-94
2023/01/29 00:24:15;;;;;;;;;;;;;;;;;;6107294;23;19916;-96
2023/01/29 00:26:42;;;;;;;;;;;;;;;;;;6107103;23;19998;-96
2023/01/29 00:29:07;;;;;;;;;;;;;;;;;;6107041;23;19991;-96
2023/01/29 00:31:33;;;;;;;;;;;;;;;;;;6107133;23;19955;-95
2023/01/29 00:33:59;;;;;;;;;;;;;;;;;;6107008;23;19916;-95
2023/01/29 00:36:25;;;;;;;;;;;;;;;;;;6107366;23;20258;-96
2023/01/29 00:38:53;;;;;;;;;;;;;;;;;;6107087;23;20335;-96
2023/01/29 00:46:48;;;;;;;;;;;;;;;;;;6131250;23;19944;-96
2023/01/29 00:49:14;;;;;;;;;;;;;;;;;;6106549;23;19920;-95
2023/01/29 00:51:40;;;;;;;;;;;;;;;;;;6106844;23;19955;-96
2023/01/29 00:54:06;;;;;;;;;;;;;;;;;;6107186;23;19985;-96
2023/01/29 00:56:32;;;;;;;;;;;;;;;;;;6106908;23;19971;-95
2023/01/29 00:58:58;;;;;;;;;;;;;;;;;;6106506;23;19921;-95
2023/01/29 01:04:09;;;;;;;;;;;;;;;;;;6131303;23;19917;-96
2023/01/29 01:06:35;;;;;;;;;;;;;;;;;;6106815;23;19943;-96
2023/01/29 01:11:45;;;;;;;;;;;;;;;;;;6131133;23;19923;-95
2023/01/29 01:14:11;;;;;;;;;;;;;;;;;;6106722;23;19917;-95
2023/01/29 01:16:37;;;;;;;;;;;;;;;;;;6127872;23;20251;-95
2023/01/29 01:19:03;;;;;;;;;;;;;;;;;;6130799;23;19923;-96
2023/01/29 01:21:29;;;;;;;;;;;;;;;;;;6131256;23;19916;-95
2023/01/29 01:23:55;;;;;;;;;;;;;;;;;;6131191;23;19987;-96
2023/01/29 01:26:21;;;;;;;;;;;;;;;;;;6131172;23;20318;-96
2023/01/29 01:28:47;;;;;;;;;;;;;;;;;;6131215;23;19991;-96
2023/01/29 01:31:13;;;;;;;;;;;;;;;;;;6130776;23;19973;-96
2023/01/29 01:33:38;;;;;;;;;;;;;;;;;;6131339;23;19916;-96
2023/01/29 01:36:08;;;;;;;;;;;;;;;;;;6131258;23;19920;-95
2023/01/29 01:38:34;;;;;;;;;;;;;;;;;;6131445;23;19924;-96
2023/01/29 01:40:59;;;;;;;;;;;;;;;;;;6131045;23;19916;-96
2023/01/29 01:43:25;;;;;;;;;;;;;;;;;;6155843;23;20530;-96
2023/01/29 01:45:52;;;;;;;;;;;;;;;;;;6130954;23;19925;-96
2023/01/29 01:48:18;;;;;;;;;;;;;;;;;;6131161;23;19954;-96
2023/01/29 01:53:15;;;;;;;;;;;;;;;;;;6156291;23;19997;-95
2023/01/29 01:55:42;;;;;;;;;;;;;;;;;;6131269;23;19923;-95
2023/01/29 01:58:08;;;;;;;;;;;;;;;;;;6131339;23;19916;-96
2023/01/29 02:00:34;;;;;;;;;;;;;;;;;;6130581;23;20115;-95
2023/01/29 02:11:14;;;;;;;;;;;;;;;;;;6155602;23;19921;-96
2023/01/29 02:13:41;;;;;;;;;;;;;;;;;;6131015;23;19917;-96
2023/01/29 02:16:07;;;;;;;;;;;;;;;;;;6130962;23;20247;-95
2023/01/29 02:18:36;;;;;;;;;;;;;;;;;;6130715;23;19922;-95
2023/01/29 02:21:02;;;;;;;;;;;;;;;;;;6130317;23;19963;-96
2023/01/29 02:23:28;;;;;;;;;;;;;;;;;;6130999;23;19920;-96
2023/01/29 02:25:54;;;;;;;;;;;;;;;;;;6131123;23;20470;-96
2023/01/29 02:28:20;;;;;;;;;;;;;;;;;;6130957;23;19916;-96
2023/01/29 02:30:46;;;;;;;;;;;;;;;;;;6130863;23;19923;-96
2023/01/29 02:33:12;;;;;;;;;;;;;;;;;;6130801;23;19987;-96
2023/01/29 02:35:38;;;;;;;;;;;;;;;;;;6130838;23;19944;-95
2023/01/29 02:38:04;;;;;;;;;;;;;;;;;;6130750;23;19982;-96
2023/01/29 02:40:30;;;;;;;;;;;;;;;;;;6130285;23;19978;-95
2023/01/29 02:42:56;;;;;;;;;;;;;;;;;;6132588;23;19917;-96
2023/01/29 02:45:22;;;;;;;;;;;;;;;;;;6132743;23;19955;-96
2023/01/29 02:47:48;;;;;;;;;;;;;;;;;;6132685;23;19939;-96
2023/01/29 02:50:14;;;;;;;;;;;;;;;;;;6132048;23;20355;-95
2023/01/29 02:52:43;;;;;;;;;;;;;;;;;;6132719;23;19916;-96
2023/01/29 02:55:09;;;;;;;;;;;;;;;;;;6132740;23;19916;-95
2023/01/29 02:57:35;;;;;;;;;;;;;;;;;;6132465;23;19964;-96
2023/01/29 03:00:01;;;;;;;;;;;;;;;;;;6132393;23;19975;-96
2023/01/29 03:02:27;;;;;;;;;;;;;;;;;;6132552;23;20306;-96
2023/01/29 03:04:53;;;;;;;;;;;;;;;;;;6132606;23;20003;-96
2023/01/29 03:08:01;;;;;;;;;;;;;;;;;;6132781;23;19952;-95
2023/01/29 03:10:08;;;;;;;;;;;;;;;;;;6141092;23;19917;-96
2023/01/29 03:12:33;;;;;;;;;;;;;;;;;;6132433;23;19991;-96
2023/01/29 03:15:12;;;;;;;;;;;;;;;;;;6132444;23;20307;-96
2023/01/29 03:17:38;;;;;;;;;;;;;;;;;;6132293;23;20287;-95
2023/01/29 03:20:06;;;;;;;;;;;;;;;;;;6131728;23;19929;-96
2023/01/29 03:22:32;;;;;;;;;;;;;;;;;;6132279;23;19948;-95
2023/01/29 03:33:12;;;;;;;;;;;;;;;;;;6156775;23;19944;-96
2023/01/29 03:35:38;;;;;;;;;;;;;;;;;;6132163;23;19924;-95
2023/01/29 03:38:04;;;;;;;;;;;;;;;;;;6132104;23;20339;-95
2023/01/29 03:40:30;;;;;;;;;;;;;;;;;;6156010;23;19952;-96
2023/01/29 03:42:56;;;;;;;;;;;;;;;;;;6132156;23;19979;-96
2023/01/29 03:45:22;;;;;;;;;;;;;;;;;;6131979;23;19973;-96
2023/01/29 03:47:48;;;;;;;;;;;;;;;;;;6131908;23;19917;-96
2023/01/29 03:50:14;;;;;;;;;;;;;;;;;;6131620;23;19967;-96
2023/01/29 03:52:39;;;;;;;;;;;;;;;;;;6131816;23;19967;-95
2023/01/29 03:55:05;;;;;;;;;;;;;;;;;;6131865;23;19920;-95
2023/01/29 03:57:31;;;;;;;;;;;;;;;;;;6131767;23;19987;-95
2023/01/29 03:59:57;;;;;;;;;;;;;;;;;;6131519;23;19947;-96
2023/01/29 04:02:26;;;;;;;;;;;;;;;;;;6132155;23;19916;-95
2023/01/29 04:04:52;;;;;;;;;;;;;;;;;;6131986;23;19921;-96
2023/01/29 04:07:22;;;;;;;;;;;;;;;;;;6132006;23;19917;-96
2023/01/29 04:09:48;;;;;;;;;;;;;;;;;;6131462;23;19917;-96
2023/01/29 04:12:14;;;;;;;;;;;;;;;;;;6131959;23;20227;-96
2023/01/29 04:14:40;;;;;;;;;;;;;;;;;;6131911;23;19924;-95
2023/01/29 04:17:06;;;;;;;;;;;;;;;;;;6107460;23;19923;-96
2023/01/29 04:19:32;;;;;;;;;;;;;;;;;;6106995;23;20363;-96
2023/01/29 04:21:58;;;;;;;;;;;;;;;;;;6107177;23;19920;-95
2023/01/29 04:24:23;;;;;;;;;;;;;;;;;;6107528;23;19917;-96
2023/01/29 04:26:49;;;;;;;;;;;;;;;;;;6107248;23;19917;-96
2023/01/29 04:29:15;;;;;;;;;;;;;;;;;;6106813;23;19963;-96
2023/01/29 04:31:41;;;;;;;;;;;;;;;;;;6107107;23;19921;-96
2023/01/29 04:34:07;;;;;;;;;;;;;;;;;;6106999;23;20048;-95
2023/01/29 04:36:34;;;;;;;;;;;;;;;;;;6106984;23;19959;-95
2023/01/29 04:39:00;;;;;;;;;;;;;;;;;;6106903;23;19916;-96
2023/01/29 04:41:26;;;;;;;;;;;;;;;;;;6107199;23;19983;-96
2023/01/29 04:43:52;;;;;;;;;;;;;;;;;;6107171;23;20339;-96
2023/01/29 04:46:18;;;;;;;;;;;;;;;;;;6106978;23;19921;-95
2023/01/29 04:48:44;;;;;;;;;;;;;;;;;;6106961;23;19921;-95
2023/01/29 04:51:10;;;;;;;;;;;;;;;;;;6106623;23;19916;-96
2023/01/29 04:53:36;;;;;;;;;;;;;;;;;;6107078;23;19944;-95
2023/01/29 04:56:02;;;;;;;;;;;;;;;;;;6107034;23;19928;-95
2023/01/29 04:58:27;;;;;;;;;;;;;;;;;;6107349;23;19916;-95
2023/01/29 05:00:53;;;;;;;;;;;;;;;;;;6106772;23;19951;-95
2023/01/29 05:03:19;;;;;;;;;;;;;;;;;;6106899;23;19916;-96
2023/01/29 05:05:45;;;;;;;;;;;;;;;;;;6106874;23;19921;-95
2023/01/29 05:08:12;;;;;;;;;;;;;;;;;;6107202;23;19916;-96
2023/01/29 05:10:37;;;;;;;;;;;;;;;;;;6106676;23;19917;-96
2023/01/29 05:13:03;;;;;;;;;;;;;;;;;;6106845;23;19963;-95
2023/01/29 05:15:29;;;;;;;;;;;;;;;;;;6114126;23;19916;-96
2023/01/29 05:18:00;;;;;;;;;;;;;;;;;;6131310;23;20271;-96
2023/01/29 05:20:26;;;;;;;;;;;;;;;;;;6131017;23;19975;-95
2023/01/29 05:22:52;;;;;;;;;;;;;;;;;;6131471;23;19924;-96
2023/01/29 05:25:18;;;;;;;;;;;;;;;;;;6131364;23;19928;-96
2023/01/29 05:28:03;;;;;;;;;;;;;;;;;;6131491;23;19920;-96
2023/01/29 05:30:29;;;;;;;;;;;;;;;;;;6131166;23;20250;-96
2023/01/29 05:32:55;;;;;;;;;;;;;;;;;;6131406;23;19948;-96
2023/01/29 05:35:21;;;;;;;;;;;;;;;;;;6155770;23;19924;-96
2023/01/29 05:37:47;;;;;;;;;;;;;;;;;;6131155;23;19917;-95
2023/01/29 05:40:13;;;;;;;;;;;;;;;;;;6130471;23;19992;-96
2023/01/29 05:42:39;;;;;;;;;;;;;;;;;;6156038;23;19923;-95
2023/01/29 05:45:05;;;;;;;;;;;;;;;;;;6131194;23;20003;-95
2023/01/29 05:47:31;;;;;;;;;;;;;;;;;;6131306;23;19924;-95
2023/01/29 05:49:57;;;;;;;;;;;;;;;;;;6130677;23;20357;-96
2023/01/29 05:52:23;;;;;;;;;;;;;;;;;;6130905;23;19917;-96
2023/01/29 05:54:49;;;;;;;;;;;;;;;;;;6131128;23;19924;-94
2023/01/29 05:57:14;;;;;;;;;;;;;;;;;;6130917;23;19920;-96
2023/01/29 05:59:40;;;;;;;;;;;;;;;;;;6130582;23;20355;-96
2023/01/29 06:02:06;;;;;;;;;;;;;;;;;;6131085;23;19924;-95
2023/01/29 06:04:32;;;;;;;;;;;;;;;;;;6130642;23;19963;-95
2023/01/29 06:07:00;;;;;;;;;;;;;;;;;;6131006;23;20255;-95
2023/01/29 06:09:25;;;;;;;;;;;;;;;;;;6130959;23;19952;-95
2023/01/29 06:11:51;;;;;;;;;;;;;;;;;;6131072;23;19964;-95
2023/01/29 06:14:17;;;;;;;;;;;;;;;;;;6130889;23;20228;-95
2023/01/29 06:16:43;;;;;;;;;;;;;;;;;;6132301;23;19917;-95
2023/01/29 06:19:09;;;;;;;;;;;;;;;;;;6132187;23;19916;-95
2023/01/29 06:21:35;;;;;;;;;;;;;;;;;;6132898;23;20258;-95
2023/01/29 06:24:01;;;;;;;;;;;;;;;;;;6132767;23;19927;-96
2023/01/29 06:26:27;;;;;;;;;;;;;;;;;;6132531;23;19921;-94
2023/01/29 06:28:53;;;;;;;;;;;;;;;;;;6132607;23;19916;-96
2023/01/29 06:31:19;;;;;;;;;;;;;;;;;;6132470;23;19924;-95
2023/01/29 06:33:45;;;;;;;;;;;;;;;;;;6132492;23;19927;-94
2023/01/29 06:36:10;;;;;;;;;;;;;;;;;;6132642;23;19917;-96
2023/01/29 06:38:36;;;;;;;;;;;;;;;;;;6132804;23;19916;-95
2023/01/29 06:41:02;;;;;;;;;;;;;;;;;;6132076;23;19960;-95
2023/01/29 06:43:28;;;;;;;;;;;;;;;;;;6132860;23;19917;-95
2023/01/29 06:45:54;;;;;;;;;;;;;;;;;;6132566;23;19924;-95
2023/01/29 06:48:20;;;;;;;;;;;;;;;;;;6132651;23;19916;-94
2023/01/29 06:50:46;;;;;;;;;;;;;;;;;;6132590;23;19923;-95
2023/01/29 06:53:12;;;;;;;;;;;;;;;;;;6132722;23;19924;-95
2023/01/29 06:55:38;;;;;;;;;;;;;;;;;;6132488;23;19916;-95
2023/01/29 06:58:04;;;;;;;;;;;;;;;;;;6132299;23;19916;-95
2023/01/29 07:00:30;;;;;;;;;;;;;;;;;;6132060;23;19947;-95
2023/01/29 07:02:55;;;;;;;;;;;;;;;;;;6132657;23;20350;-94
2023/01/29 07:05:21;;;;;;;;;;;;;;;;;;6132332;23;19960;-96
2023/01/29 07:07:47;;;;;;;;;;;;;;;;;;6132573;23;19956;-95
2023/01/29 07:10:13;;;;;;;;;;;;;;;;;;6132095;23;20350;-95
2023/01/29 07:12:39;;;;;;;;;;;;;;;;;;6132177;23;19923;-95
2023/01/29 07:15:05;;;;;;;;;;;;;;;;;;6132311;23;19920;-96
2023/01/29 07:17:31;;;;;;;;;;;;;;;;;;6132302;23;19917;-96
2023/01/29 07:19:57;;;;;;;;;;;;;;;;;;6131761;23;20339;-96
2023/01/29 07:22:23;;;;;;;;;;;;;;;;;;6132565;23;19992;-96
2023/01/29 07:24:49;;;;;;;;;;;;;;;;;;6132203;23;19975;-96
2023/01/29 07:27:15;;;;;;;;;;;;;;;;;;6131857;23;19920;-96
2023/01/29 07:29:40;;;;;;;;;;;;;;;;;;6131989;23;19922;-96
2023/01/29 07:32:06;;;;;;;;;;;;;;;;;;6132716;23;19952;-96
2023/01/29 07:34:32;;;;;;;;;;;;;;;;;;6132280;23;20378;-96
2023/01/29 07:36:58;;;;;;;;;;;;;;;;;;6132372;23;19967;-96
2023/01/29 07:39:24;;;;;;;;;;;;;;;;;;6131772;23;19928;-96
2023/01/29 07:41:50;;;;;;;;;;;;;;;;;;6132296;23;19916;-95
2023/01/29 07:44:16;;;;;;;;;;;;;;;;;;6132522;23;20246;-96
2023/01/29 07:46:42;;;;;;;;;;;;;;;;;;6131875;23;19944;-95
2023/01/29 07:49:08;;;;;;;;;;;;;;;;;;6131406;23;19987;-96
2023/01/29 07:51:34;;;;;;;;;;;;;;;;;;6132077;23;19923;-96
2023/01/29 07:54:00;;;;;;;;;;;;;;;;;;6132318;23;19997;-95
2023/01/29 07:56:26;;;;;;;;;;;;;;;;;;6156707;23;19916;-96
2023/01/29 07:58:52;;;;;;;;;;;;;;;;;;6132218;23;19917;-96
2023/01/29 08:01:17;;;;;;;;;;;;;;;;;;6131761;23;19944;-96
2023/01/29 08:03:43;;;;;;;;;;;;;;;;;;6131878;23;19947;-96
2023/01/29 08:06:09;;;;;;;;;;;;;;;;;;6132099;23;19920;-95
2023/01/29 08:08:35;;;;;;;;;;;;;;;;;;6131850;23;19917;-96
2023/01/29 08:11:01;;;;;;;;;;;;;;;;;;6131586;23;19928;-96
2023/01/29 08:13:27;;;;;;;;;;;;;;;;;;6132102;23;19924;-95
2023/01/29 08:15:53;;;;;;;;;;;;;;;;;;6132015;23;19967;-95
2023/01/29 08:18:19;;;;;;;;;;;;;;;;;;6132025;23;20306;-95
2023/01/29 08:20:45;;;;;;;;;;;;;;;;;;6131406;23;19975;-94
2023/01/29 08:23:11;;;;;;;;;;;;;;;;;;6131902;23;19916;-94
2023/01/29 08:25:37;;;;;;;;;;;;;;;;;;6131456;23;19925;-95
2023/01/29 08:28:02;;;;;;;;;;;;;;;;;;6131757;23;20337;-95
2023/01/29 08:30:28;;;;;;;;;;;;;;;;;;6131349;23;19975;-96
2023/01/29 08:32:54;;;;;;;;;;;;;;;;;;6131705;23;19967;-95
2023/01/29 08:35:20;;;;;;;;;;;;;;;;;;6132306;23;19916;-95
2023/01/29 08:37:46;;;;;;;;;;;;;;;;;;6131846;23;19984;-96
2023/01/29 08:40:12;;;;;;;;;;;;;;;;;;6130837;23;19963;-96
2023/01/29 08:42:40;;;;;;;;;;;;;;;;;;6131784;23;20575;-95
2023/01/29 08:45:06;;;;;;;;;;;;;;;;;;6131462;23;19920;-96
2023/01/29 08:47:32;;;;;;;;;;;;;;;;;;6131669;23;20354;-96
2023/01/29 08:49:57;;;;;;;;;;;;;;;;;;6131090;23;19924;-96
2023/01/29 08:52:23;;;;;;;;;;;;;;;;;;6131564;23;19917;-96
2023/01/29 08:54:49;;;;;;;;;;;;;;;;;;6131713;23;19939;-96
2023/01/29 08:57:15;;;;;;;;;;;;;;;;;;6131879;23;19923;-96
2023/01/29 08:59:41;;;;;;;;;;;;;;;;;;6131247;23;19992;-96
2023/01/29 09:02:07;;;;;;;;;;;;;;;;;;6130785;23;20394;-95
2023/01/29 09:04:33;;;;;;;;;;;;;;;;;;6129671;23;20006;-96
2023/01/29 09:06:59;;;;;;;;;;;;;;;;;;6130677;23;19916;-96
2023/01/29 09:09:25;;;;;;;;;;;;;;;;;;6130410;23;19921;-96
2023/01/29 09:11:51;;;;;;;;;;;;;;;;;;6130563;23;19924;-96
2023/01/29 09:14:17;;;;;;;;;;;;;;;;;;6130608;23;19924;-96
2023/01/29 09:16:42;;;;;;;;;;;;;;;;;;6130567;23;20247;-96
2023/01/29 09:22:15;;;;;;;;;;;;;;;;;;6166602;23;19915;-96
2023/01/29 09:24:41;;;;;;;;;;;;;;;;;;6130566;23;19924;-96
2023/01/29 09:27:08;;;;;;;;;;;;;;;;;;6130963;23;19920;-94
2023/01/29 09:29:34;;;;;;;;;;;;;;;;;;6130152;23;19924;-96
2023/01/29 09:32:00;;;;;;;;;;;;;;;;;;6130834;23;19916;-96
2023/01/29 09:34:26;;;;;;;;;;;;;;;;;;6130903;23;20338;-95
2023/01/29 09:36:52;;;;;;;;;;;;;;;;;;6155417;23;19917;-96
2023/01/29 09:39:18;;;;;;;;;;;;;;;;;;6130326;23;19920;-96
2023/01/29 09:41:44;;;;;;;;;;;;;;;;;;6130426;23;20001;-96
2023/01/29 09:44:10;;;;;;;;;;;;;;;;;;6130700;23;19975;-96
2023/01/29 09:46:36;;;;;;;;;;;;;;;;;;6130461;23;19979;-95
2023/01/29 09:49:02;;;;;;;;;;;;;;;;;;6155639;23;19924;-94
2023/01/29 09:51:27;;;;;;;;;;;;;;;;;;6133411;23;19920;-95
2023/01/29 09:53:53;;;;;;;;;;;;;;;;;;6133995;23;19917;-96
2023/01/29 09:56:19;;;;;;;;;;;;;;;;;;6133800;23;19921;-96
2023/01/29 09:58:45;;;;;;;;;;;;;;;;;;6133483;23;19931;-95
2023/01/29 10:01:12;;;;;;;;;;;;;;;;;;6133343;23;19968;-96
2023/01/29 10:03:38;;;;;;;;;;;;;;;;;;6133708;23;19924;-96
2023/01/29 10:06:03;;;;;;;;;;;;;;;;;;6134122;23;20335;-95
2023/01/29 10:08:29;;;;;;;;;;;;;;;;;;6133097;23;19917;-95
2023/01/29 10:10:55;;;;;;;;;;;;;;;;;;6132984;23;19917;-96
2023/01/29 10:13:21;;;;;;;;;;;;;;;;;;6133347;23;19952;-96
2023/01/29 10:15:47;;;;;;;;;;;;;;;;;;6133021;23;19996;-96
2023/01/29 10:18:13;;;;;;;;;;;;;;;;;;6133108;23;19916;-96
2023/01/29 10:20:39;;;;;;;;;;;;;;;;;;6132425;23;19932;-95
2023/01/29 10:23:05;;;;;;;;;;;;;;;;;;6132917;23;19943;-96
2023/01/29 10:25:31;;;;;;;;;;;;;;;;;;6133106;23;19960;-96
2023/01/29 10:27:57;;;;;;;;;;;;;;;;;;6132959;23;19951;-95
2023/01/29 10:30:23;;;;;;;;;;;;;;;;;;6132442;23;19928;-95
2023/01/29 10:32:49;;;;;;;;;;;;;;;;;;6132976;23;19967;-94
2023/01/29 10:35:14;;;;;;;;;;;;;;;;;;6133142;23;19921;-95
2023/01/29 10:37:40;;;;;;;;;;;;;;;;;;6132914;23;19924;-95
2023/01/29 10:40:06;;;;;;;;;;;;;;;;;;6132751;23;19952;-96
2023/01/29 10:42:32;;;;;;;;;;;;;;;;;;6133064;23;19920;-94
2023/01/29 10:44:58;;;;;;;;;;;;;;;;;;6132964;23;19927;-95
2023/01/29 10:47:24;;;;;;;;;;;;;;;;;;6133151;23;19944;-95
2023/01/29 10:49:50;;;;;;;;;;;;;;;;;;6132694;23;19916;-96
2023/01/29 10:52:16;;;;;;;;;;;;;;;;;;6133059;23;19917;-94
2023/01/29 10:54:42;;;;;;;;;;;;;;;;;;6133142;23;19928;-95
2023/01/29 10:57:08;;;;;;;;;;;;;;;;;;6133166;23;19923;-95
2023/01/29 10:59:34;;;;;;;;;;;;;;;;;;6132440;23;20250;-94
2023/01/29 11:02:02;;;;;;;;;;;;;;;;;;6131786;23;19917;-95
2023/01/29 11:04:27;;;;;;;;;;;;;;;;;;6130983;23;19921;-94
2023/01/29 11:06:53;;;;;;;;;;;;;;;;;;6130971;23;19984;-95
2023/01/29 11:09:19;;;;;;;;;;;;;;;;;;6130469;23;19983;-96
2023/01/29 11:11:45;;;;;;;;;;;;;;;;;;6131063;23;20331;-96
2023/01/29 11:14:11;;;;;;;;;;;;;;;;;;6131820;23;20378;-94
2023/01/29 11:16:37;;;;;;;;;;;;;;;;;;6131033;23;19959;-95
2023/01/29 11:19:03;;;;;;;;;;;;;;;;;;6130708;23;20023;-93
2023/01/29 11:21:29;;;;;;;;;;;;;;;;;;6131084;23;20399;-94
2023/01/29 11:23:55;;;;;;;;;;;;;;;;;;6131337;23;19971;-94
2023/01/29 11:26:22;;;;;;;;;;;;;;;;;;6131209;23;19974;-95
2023/01/29 11:28:48;;;;;;;;;;;;;;;;;;6131457;23;19917;-94
2023/01/29 11:31:14;;;;;;;;;;;;;;;;;;6130746;23;19916;-95
2023/01/29 11:33:40;;;;;;;;;;;;;;;;;;6131233;23;19927;-93
2023/01/29 11:36:06;;;;;;;;;;;;;;;;;;6130887;23;19917;-94
2023/01/29 11:38:32;;;;;;;;;;;;;;;;;;6130828;23;19916;-94
2023/01/29 11:40:58;;;;;;;;;;;;;;;;;;6130547;23;20262;-95
2023/01/29 11:43:24;;;;;;;;;;;;;;;;;;6131212;23;20455;-94
2023/01/29 11:45:50;;;;;;;;;;;;;;;;;;6131616;23;19920;-96
2023/01/29 11:48:16;;;;;;;;;;;;;;;;;;6131135;23;20330;-96
2023/01/29 11:50:42;;;;;;;;;;;;;;;;;;6130776;23;19920;-96
2023/01/29 11:53:07;;;;;;;;;;;;;;;;;;6131769;23;19917;-96
2023/01/29 11:55:33;;;;;;;;;;;;;;;;;;6131858;23;19924;-96
2023/01/29 11:57:59;;;;;;;;;;;;;;;;;;6131771;23;19916;-96
2023/01/29 12:00:26;;;;;;;;;;;;;;;;;;6131012;23;19927;-96
2023/01/29 12:02:51;;;;;;;;;;;;;;;;;;6130670;23;19923;-96
2023/01/29 12:05:17;;;;;;;;;;;;;;;;;;6131109;23;19960;-95
2023/01/29 12:07:44;;;;;;;;;;;;;;;;;;6131368;23;20357;-96
2023/01/29 12:10:10;;;;;;;;;;;;;;;;;;6131309;23;19924;-96
2023/01/29 12:12:36;;;;;;;;;;;;;;;;;;6131878;23;19917;-96
2023/01/29 12:15:01;;;;;;;;;;;;;;;;;;6130708;23;19943;-95
2023/01/29 12:17:27;;;;;;;;;;;;;;;;;;6130388;23;19927;-96
2023/01/29 12:19:53;;;;;;;;;;;;;;;;;;6130037;23;20339;-94
2023/01/29 12:22:19;;;;;;;;;;;;;;;;;;6130032;23;19916;-96
2023/01/29 12:24:45;;;;;;;;;;;;;;;;;;6129202;23;19924;-96
2023/01/29 12:27:11;;;;;;;;;;;;;;;;;;6129214;23;20039;-92
2023/01/29 12:29:37;;;;;;;;;;;;;;;;;;6128425;23;20379;-93
2023/01/29 12:32:03;;;;;;;;;;;;;;;;;;6128298;23;19916;-94
2023/01/29 12:34:29;;;;;;;;;;;;;;;;;;6152492;23;19987;-94
2023/01/29 12:36:55;;;;;;;;;;;;;;;;;;6128805;23;19920;-94
2023/01/29 12:39:21;;;;;;;;;;;;;;;;;;6152163;23;19949;-93
2023/01/29 12:41:47;;;;;;;;;;;;;;;;;;6128212;23;19917;-94
2023/01/29 12:44:13;;;;;;;;;;;;;;;;;;6153136;23;19960;-94
2023/01/29 12:46:39;;;;;;;;;;;;;;;;;;6128112;23;19927;-93
2023/01/29 12:49:04;;;;;;;;;;;;;;;;;;6127527;23;19927;-93
2023/01/29 12:51:30;;;;;;;;;;;;;;;;;;6128232;23;20375;-94
2023/01/29 12:53:56;;;;;;;;;;;;;;;;;;6130070;23;19917;-92
2023/01/29 12:56:22;;;;;;;;;;;;;;;;;;6129741;23;19922;-94
2023/01/29 13:01:52;;;;;;;;;;;;;;;;;;6166011;23;19996;-95
2023/01/29 13:04:18;;;;;;;;;;;;;;;;;;6130072;23;19948;-94
2023/01/29 13:06:44;;;;;;;;;;;;;;;;;;6129878;23;19928;-92
2023/01/29 13:11:39;;;;;;;;;;;;;;;;;;6154192;23;19995;-94
2023/01/29 13:14:05;;;;;;;;;;;;;;;;;;6129440;23;19963;-94
2023/01/29 13:16:32;;;;;;;;;;;;;;;;;;6153816;23;20250;-94
2023/01/29 13:18:58;;;;;;;;;;;;;;;;;;6130467;23;19916;-96
2023/01/29 13:21:30;;;;;;;;;;;;;;;;;;6131924;23;19924;-96
2023/01/29 13:23:56;;;;;;;;;;;;;;;;;;6133316;23;19917;-96
2023/01/29 13:26:22;;;;;;;;;;;;;;;;;;6157197;23;19960;-96
2023/01/29 13:28:48;;;;;;;;;;;;;;;;;;6134354;23;20334;-96
2023/01/29 13:31:14;;;;;;;;;;;;;;;;;;6133322;23;19920;-95
2023/01/29 13:33:39;;;;;;;;;;;;;;;;;;6132940;23;20060;-96
2023/01/29 13:36:05;;;;;;;;;;;;;;;;;;6134532;23;19931;-96
2023/01/29 13:38:32;;;;;;;;;;;;;;;;;;6158301;23;19963;-96
2023/01/29 13:40:59;;;;;;;;;;;;;;;;;;6133881;23;19917;-96
2023/01/29 13:43:25;;;;;;;;;;;;;;;;;;6135537;23;19921;-96
2023/01/29 13:45:51;;;;;;;;;;;;;;;;;;6137187;23;19928;-96
2023/01/29 13:48:17;;;;;;;;;;;;;;;;;;6135062;23;19917;-95
2023/01/29 13:50:43;;;;;;;;;;;;;;;;;;6134504;23;19917;-96
2023/01/29 13:53:08;;;;;;;;;;;;;;;;;;6158785;23;19951;-96
2023/01/29 13:55:34;;;;;;;;;;;;;;;;;;6131602;23;19925;-96
2023/01/29 13:58:00;;;;;;;;;;;;;;;;;;6135908;23;19920;-96
2023/01/29 14:00:29;;;;;;;;;;;;;;;;;;6132432;23;19916;-96
2023/01/29 14:02:55;;;;;;;;;;;;;;;;;;6134319;23;20170;-96
2023/01/29 14:05:21;;;;;;;;;;;;;;;;;;6132352;23;19921;-96
2023/01/29 14:07:48;;;;;;;;;;;;;;;;;;6133247;23;20378;-96
2023/01/29 14:10:14;;;;;;;;;;;;;;;;;;6131674;23;19916;-96
2023/01/29 14:12:40;;;;;;;;;;;;;;;;;;6132482;23;19966;-95
2023/01/29 14:15:06;;;;;;;;;;;;;;;;;;6132672;23;19991;-96
2023/01/29 14:17:32;;;;;;;;;;;;;;;;;;6135159;23;19923;-95
2023/01/29 14:19:58;;;;;;;;;;;;;;;;;;6133139;23;19956;-96
2023/01/29 14:22:25;;;;;;;;;;;;;;;;;;6133051;23;19964;-96
2023/01/29 14:24:51;;;;;;;;;;;;;;;;;;6132827;23;19952;-96
2023/01/29 14:27:32;;;;;;;;;;;;;;;;;;6135541;23;19920;-96
2023/01/29 14:29:58;;;;;;;;;;;;;;;;;;6136641;23;19924;-96
2023/01/29 14:32:24;;;;;;;;;;;;;;;;;;6136296;23;19917;-96
2023/01/29 14:34:53;;;;;;;;;;;;;;;;;;6134471;23;19916;-95
2023/01/29 14:37:19;;;;;;;;;;;;;;;;;;6131631;23;19939;-95
2023/01/29 14:39:45;;;;;;;;;;;;;;;;;;6132395;23;19927;-94
2023/01/29 14:42:11;;;;;;;;;;;;;;;;;;6133720;23;19916;-94
2023/01/29 14:44:37;;;;;;;;;;;;;;;;;;6133001;23;19999;-94
2023/01/29 14:47:03;;;;;;;;;;;;;;;;;;6133294;23;19924;-95
2023/01/29 14:49:29;;;;;;;;;;;;;;;;;;6132994;23;20347;-94
2023/01/29 14:51:55;;;;;;;;;;;;;;;;;;6133514;23;19920;-95
2023/01/29 14:54:21;;;;;;;;;;;;;;;;;;6133998;23;19983;-95
2023/01/29 14:56:47;;;;;;;;;;;;;;;;;;6133948;23;19970;-95
2023/01/29 14:59:13;;;;;;;;;;;;;;;;;;6132819;23;19917;-89
2023/01/29 15:01:39;;;;;;;;;;;;;;;;;;6135542;23;19926;-94
2023/01/29 15:04:05;;;;;;;;;;;;;;;;;;6135982;23;19923;-94
2023/01/29 15:06:31;;;;;;;;;;;;;;;;;;6137142;23;19920;-94
2023/01/29 15:08:57;;;;;;;;;;;;;;;;;;6136804;23;20463;-94
2023/01/29 15:11:35;;;;;;;;;;;;;;;;;;6136721;23;19917;-94
2023/01/29 15:14:01;;;;;;;;;;;;;;;;;;6136395;23;19917;-95
2023/01/29 15:16:27;;;;;;;;;;;;;;;;;;6138004;23;20449;-95
2023/01/29 15:18:54;;;;;;;;;;;;;;;;;;6146789;23;21723;-94
2023/01/29 15:21:20;;;;;;;;;;;;;;;;;;6137132;23;19916;-93
2023/01/29 15:23:47;;;;;;;;;;;;;;;;;;6137535;23;19964;-95
2023/01/29 15:26:14;;;;;;;;;;;;;;;;;;6159788;23;20013;-95
2023/01/29 15:28:40;;;;;;;;;;;;;;;;;;6135237;23;19920;-95
2023/01/29 15:31:08;;;;;;;;;;;;;;;;;;6160500;23;19996;-93
2023/01/29 15:33:34;;;;;;;;;;;;;;;;;;6137562;23;19917;-94
2023/01/29 15:36:00;;;;;;;;;;;;;;;;;;6136874;23;19916;-94
2023/01/29 15:38:28;;;;;;;;;;;;;;;;;;6134795;23;19927;-93
2023/01/29 15:40:55;;;;;;;;;;;;;;;;;;6134313;23;19923;-94
2023/01/29 15:43:21;;;;;;;;;;;;;;;;;;6135459;23;19917;-94
2023/01/29 15:45:47;;;;;;;;;;;;;;;;;;6135444;23;19925;-94
2023/01/29 15:48:13;;;;;;;;;;;;;;;;;;6135183;23;19987;-94
2023/01/29 15:50:39;;;;;;;;;;;;;;;;;;6135098;23;19971;-94
2023/01/29 15:53:05;;;;;;;;;;;;;;;;;;6135962;23;19924;-94
2023/01/29 15:55:31;;;;;;;;;;;;;;;;;;6136110;23;19940;-95
2023/01/29 15:57:57;;;;;;;;;;;;;;;;;;6135959;23;19984;-94
2023/01/29 16:00:23;;;;;;;;;;;;;;;;;;6135637;23;19970;-92
2023/01/29 16:02:49;;;;;;;;;;;;;;;;;;6135528;23;19927;-96
2023/01/29 16:05:15;;;;;;;;;;;;;;;;;;6134345;23;20232;-95
2023/01/29 16:07:41;;;;;;;;;;;;;;;;;;6135992;23;19923;-95
2023/01/29 16:10:07;;;;;;;;;;;;;;;;;;6134821;23;19995;-95
2023/01/29 16:12:33;;;;;;;;;;;;;;;;;;6135348;23;19923;-94
2023/01/29 16:15:00;;;;;;;;;;;;;;;;;;6158667;23;19923;-94
2023/01/29 16:17:26;;;;;;;;;;;;;;;;;;6160110;23;20339;-94
2023/01/29 16:19:51;;;;;;;;;;;;;;;;;;6134241;23;19920;-94
2023/01/29 16:22:17;;;;;;;;;;;;;;;;;;6135311;23;19916;-94
2023/01/29 16:24:46;;;;;;;;;;;;;;;;;;6134635;23;19927;-94
2023/01/29 16:27:12;;;;;;;;;;;;;;;;;;6134323;23;19927;-94
2023/01/29 16:29:38;;;;;;;;;;;;;;;;;;6133396;23;19952;-95
2023/01/29 16:32:05;;;;;;;;;;;;;;;;;;6133809;23;19917;-95
2023/01/29 16:34:33;;;;;;;;;;;;;;;;;;6134591;23;19917;-93
2023/01/29 16:36:59;;;;;;;;;;;;;;;;;;6135089;23;19924;-95
2023/01/29 16:39:26;;;;;;;;;;;;;;;;;;6133470;23;19921;-94
2023/01/29 16:41:52;;;;;;;;;;;;;;;;;;6134521;23;19964;-93
2023/01/29 16:44:18;;;;;;;;;;;;;;;;;;6135511;23;20284;-93
2023/01/29 16:46:45;;;;;;;;;;;;;;;;;;6134856;23;20324;-93
2023/01/29 16:49:10;;;;;;;;;;;;;;;;;;6134111;23;19994;-93
2023/01/29 16:51:36;;;;;;;;;;;;;;;;;;6134282;23;19916;-93
2023/01/29 16:54:03;;;;;;;;;;;;;;;;;;6134438;23;19944;-94
2023/01/29 16:56:29;;;;;;;;;;;;;;;;;;6135186;23;19917;-94
2023/01/29 16:58:55;;;;;;;;;;;;;;;;;;6134442;23;19916;-94
2023/01/29 17:01:21;;;;;;;;;;;;;;;;;;6134373;23;19923;-94
2023/01/29 17:03:47;;;;;;;;;;;;;;;;;;6135143;23;20323;-94
2023/01/29 17:06:13;;;;;;;;;;;;;;;;;;6134157;23;19920;-94
2023/01/29 17:08:38;;;;;;;;;;;;;;;;;;6134236;23;19988;-94
2023/01/29 17:11:06;;;;;;;;;;;;;;;;;;6133839;23;19920;-95
2023/01/29 17:13:32;;;;;;;;;;;;;;;;;;6134102;23;19954;-94
2023/01/29 17:15:58;;;;;;;;;;;;;;;;;;6132938;23;20327;-93
2023/01/29 17:18:28;;;;;;;;;;;;;;;;;;6135254;23;19995;-94